Time;durP1;ratioP1;P1;durP2;ratioP2;P2;SDS_P1;SDS_P2;PMS_P1;PMS_P2;Temp;Humidity;BMP_temperature;BMP_pressure;BME280_temperature;BME280_humidity;BME280_pressure;Samples;Min_cycle;Max_cycle;Signal;HPM_P1;HPM_P2
2023/10/05 00:01:10;;;;;;;9.43;2.13;;;;;;;;;;5067476;28;20052;-61
2023/10/05 00:03:38;;;;;;;12.23;2.60;;;;;;;;;;5067591;28;20052;-61
2023/10/05 00:06:13;;;;;;;9.33;2.20;;;;;;;;;;5067664;28;20055;-61
2023/10/05 00:08:43;;;;;;;9.03;2.10;;;;;;;;;;5066999;28;20053;-61
2023/10/05 00:11:09;;;;;;;11.53;2.67;;;;;;;;;;5067445;28;20048;-65
2023/10/05 00:13:35;;;;;;;12.50;2.30;;;;;;;;;;5067775;28;20053;-61
2023/10/05 00:16:05;;;;;;;11.10;2.20;;;;;;;;;;5067581;28;20040;-61
2023/10/05 00:18:32;;;;;;;14.20;2.93;;;;;;;;;;5069333;28;20056;-60
2023/10/05 00:21:00;;;;;;;13.50;2.70;;;;;;;;;;5070692;28;20497;-61
2023/10/05 00:23:27;;;;;;;12.63;2.67;;;;;;;;;;5071526;28;20044;-61
2023/10/05 00:25:55;;;;;;;11.47;2.20;;;;;;;;;;5071409;28;20048;-61
2023/10/05 00:28:24;;;;;;;9.60;2.47;;;;;;;;;;5071535;28;20056;-61
2023/10/05 00:30:52;;;;;;;11.93;2.33;;;;;;;;;;5071254;28;20098;-61
2023/10/05 00:33:18;;;;;;;10.97;2.80;;;;;;;;;;5071259;28;20049;-61
2023/10/05 00:35:44;;;;;;;11.20;2.53;;;;;;;;;;5071267;28;20478;-61
2023/10/05 00:38:16;;;;;;;12.73;3.30;;;;;;;;;;5071291;28;20060;-61
2023/10/05 00:41:08;;;;;;;14.87;2.73;;;;;;;;;;5071001;28;20059;-61
2023/10/05 00:43:28;;;;;;;9.10;2.47;;;;;;;;;;5070131;28;20105;-61
2023/10/05 00:45:56;;;;;;;10.37;3.20;;;;;;;;;;5070931;28;20486;-61
2023/10/05 00:50:58;;;;;;;11.50;2.17;;;;;;;;;;5070600;28;20117;-62
2023/10/05 00:53:27;;;;;;;8.70;2.37;;;;;;;;;;5070257;28;20405;-61
2023/10/05 00:56:04;;;;;;;17.20;2.50;;;;;;;;;;5070632;28;20070;-61
2023/10/05 00:58:37;;;;;;;7.83;2.53;;;;;;;;;;5069534;28;20056;-61
2023/10/05 01:01:14;;;;;;;14.93;3.30;;;;;;;;;;5071213;28;20410;-61
2023/10/05 01:03:47;;;;;;;11.53;2.27;;;;;;;;;;5070504;28;20079;-61
2023/10/05 01:06:26;;;;;;;12.80;2.42;;;;;;;;;;5070889;28;20705;-61
2023/10/05 01:09:00;;;;;;;8.63;2.13;;;;;;;;;;5070442;28;20044;-61
2023/10/05 01:11:43;;;;;;;8.17;1.87;;;;;;;;;;5070466;28;20049;-61
2023/10/05 01:14:09;;;;;;;10.93;2.10;;;;;;;;;;5070454;28;20098;-61
2023/10/05 01:16:35;;;;;;;12.03;2.43;;;;;;;;;;5070602;28;20129;-61
2023/10/05 01:19:07;;;;;;;6.47;2.23;;;;;;;;;;5070253;28;20089;-61
2023/10/05 01:21:34;;;;;;;9.20;2.10;;;;;;;;;;5070467;28;20056;-61
2023/10/05 01:24:00;;;;;;;14.30;2.70;;;;;;;;;;5070287;28;20159;-61
2023/10/05 01:26:26;;;;;;;7.00;1.90;;;;;;;;;;5070251;28;20110;-61
2023/10/05 01:28:52;;;;;;;9.00;2.13;;;;;;;;;;5069647;28;20121;-61
2023/10/05 01:31:20;;;;;;;11.63;2.33;;;;;;;;;;5069712;28;20474;-61
2023/10/05 01:33:47;;;;;;;12.47;3.07;;;;;;;;;;5070176;28;20044;-61
2023/10/05 01:36:16;;;;;;;11.73;2.60;;;;;;;;;;5070143;28;20044;-61
2023/10/05 01:38:44;;;;;;;9.27;1.80;;;;;;;;;;5069592;28;20061;-61
2023/10/05 01:41:10;;;;;;;7.70;2.40;;;;;;;;;;5069979;28;20503;-61
2023/10/05 01:43:42;;;;;;;10.73;2.30;;;;;;;;;;5070024;28;20195;-61
2023/10/05 01:46:10;;;;;;;12.63;3.27;;;;;;;;;;5069800;28;20036;-60
2023/10/05 01:48:37;;;;;;;8.57;2.70;;;;;;;;;;5069847;28;20590;-61
2023/10/05 01:51:15;;;;;;;11.57;2.63;;;;;;;;;;5069633;28;20061;-61
2023/10/05 01:53:43;;;;;;;16.53;3.20;;;;;;;;;;5069945;28;20052;-61
2023/10/05 01:56:17;;;;;;;11.07;2.87;;;;;;;;;;5069452;28;20137;-61
2023/10/05 01:58:43;;;;;;;10.27;2.30;;;;;;;;;;5069512;28;20289;-61
2023/10/05 02:01:10;;;;;;;9.90;2.20;;;;;;;;;;5069591;28;20040;-61
2023/10/05 02:03:37;;;;;;;10.13;2.80;;;;;;;;;;5069829;28;20105;-62
2023/10/05 02:06:07;;;;;;;11.03;2.70;;;;;;;;;;5069337;28;20048;-61
2023/10/05 02:08:36;;;;;;;10.03;2.53;;;;;;;;;;5069721;28;20091;-61
2023/10/05 02:11:04;;;;;;;11.07;2.17;;;;;;;;;;5069303;28;20052;-62
2023/10/05 02:13:31;;;;;;;12.20;3.10;;;;;;;;;;5069408;28;20135;-61
2023/10/05 02:16:00;;;;;;;17.73;4.10;;;;;;;;;;5069802;28;20566;-61
2023/10/05 02:18:31;;;;;;;10.83;3.37;;;;;;;;;;5068914;28;20137;-61
2023/10/05 02:21:09;;;;;;;11.17;2.93;;;;;;;;;;5069605;28;20174;-61
2023/10/05 02:23:42;;;;;;;13.57;3.23;;;;;;;;;;5069279;28;20041;-61
2023/10/05 02:26:23;;;;;;;13.98;2.60;;;;;;;;;;5069164;28;20044;-61
2023/10/05 02:28:49;;;;;;;10.30;2.67;;;;;;;;;;5068461;28;20044;-61
2023/10/05 02:31:15;;;;;;;9.60;2.67;;;;;;;;;;5069018;28;20541;-61
2023/10/05 02:33:43;;;;;;;7.07;2.47;;;;;;;;;;5068860;28;20581;-61
2023/10/05 02:36:11;;;;;;;9.63;2.50;;;;;;;;;;5068951;28;20041;-61
2023/10/05 02:38:48;;;;;;;12.50;2.83;;;;;;;;;;5068451;28;20060;-61
2023/10/05 02:41:16;;;;;;;11.97;2.50;;;;;;;;;;5068160;28;20526;-61
2023/10/05 02:43:51;;;;;;;11.57;2.63;;;;;;;;;;5068995;28;20482;-61
2023/10/05 02:46:19;;;;;;;9.97;2.83;;;;;;;;;;5069250;28;20078;-61
2023/10/05 02:48:45;;;;;;;7.30;2.27;;;;;;;;;;5068125;28;20056;-61
2023/10/05 02:51:13;;;;;;;9.07;2.67;;;;;;;;;;5068549;28;20053;-61
2023/10/05 02:53:58;;;;;;;13.07;3.07;;;;;;;;;;5068838;28;20083;-61
2023/10/05 02:56:27;;;;;;;10.63;2.37;;;;;;;;;;5069176;28;20395;-61
2023/10/05 02:59:02;;;;;;;11.80;2.63;;;;;;;;;;5068016;28;20049;-61
2023/10/05 03:01:30;;;;;;;16.03;2.93;;;;;;;;;;5068689;28;20380;-61
2023/10/05 03:03:57;;;;;;;12.70;2.80;;;;;;;;;;5068363;28;20075;-61
2023/10/05 03:06:23;;;;;;;12.23;2.67;;;;;;;;;;5069003;28;20083;-61
2023/10/05 03:08:54;;;;;;;10.77;2.63;;;;;;;;;;5068425;28;20062;-61
2023/10/05 03:11:20;;;;;;;10.67;2.60;;;;;;;;;;5068193;28;20765;-61
2023/10/05 03:13:47;;;;;;;12.47;3.00;;;;;;;;;;5066948;28;20040;-60
2023/10/05 03:16:16;;;;;;;12.20;2.70;;;;;;;;;;5068236;28;20123;-61
2023/10/05 03:18:43;;;;;;;9.00;2.47;;;;;;;;;;5068014;28;20045;-61
2023/10/05 03:21:12;;;;;;;10.87;2.47;;;;;;;;;;5067813;28;20044;-61
2023/10/05 03:23:42;;;;;;;9.43;3.23;;;;;;;;;;5068173;28;20090;-61
2023/10/05 03:26:13;;;;;;;15.50;3.30;;;;;;;;;;5068159;28;20067;-61
2023/10/05 03:28:41;;;;;;;9.00;3.00;;;;;;;;;;5068027;28;20049;-61
2023/10/05 03:31:32;;;;;;;10.13;2.63;;;;;;;;;;5068155;28;20075;-61
2023/10/05 03:33:57;;;;;;;10.90;2.80;;;;;;;;;;5068011;28;20518;-61
2023/10/05 03:36:24;;;;;;;11.67;2.73;;;;;;;;;;5068071;28;20067;-61
2023/10/05 03:38:56;;;;;;;13.67;3.00;;;;;;;;;;5067605;28;20498;-61
2023/10/05 03:41:26;;;;;;;11.20;2.80;;;;;;;;;;5067893;28;20414;-61
2023/10/05 03:43:55;;;;;;;26.57;4.07;;;;;;;;;;5067735;28;20040;-61
2023/10/05 03:46:24;;;;;;;16.60;3.60;;;;;;;;;;5067353;28;20366;-61
2023/10/05 03:48:50;;;;;;;13.73;3.10;;;;;;;;;;5067459;28;20056;-62
2023/10/05 03:51:16;;;;;;;15.40;3.73;;;;;;;;;;5068190;28;20047;-61
2023/10/05 03:53:48;;;;;;;11.70;2.87;;;;;;;;;;5072460;28;20136;-62
2023/10/05 03:56:17;;;;;;;19.77;3.63;;;;;;;;;;5074170;28;20119;-63
2023/10/05 03:58:44;;;;;;;15.80;3.27;;;;;;;;;;5074563;28;20405;-63
2023/10/05 04:01:12;;;;;;;17.20;3.90;;;;;;;;;;5074373;28;20048;-61
2023/10/05 04:03:38;;;;;;;11.07;4.17;;;;;;;;;;5074546;28;20059;-61
2023/10/05 04:06:17;;;;;;;11.93;3.20;;;;;;;;;;5074487;28;20052;-61
2023/10/05 04:08:53;;;;;;;9.23;3.10;;;;;;;;;;5074047;28;20051;-61
2023/10/05 04:11:21;;;;;;;12.40;3.50;;;;;;;;;;5074378;28;20056;-61
2023/10/05 04:13:49;;;;;;;14.77;3.70;;;;;;;;;;5074301;28;20510;-61
2023/10/05 04:16:26;;;;;;;20.43;3.60;;;;;;;;;;5074637;28;20064;-60
2023/10/05 04:18:52;;;;;;;9.73;3.20;;;;;;;;;;5073604;28;20045;-61
2023/10/05 04:21:19;;;;;;;15.83;3.40;;;;;;;;;;5074423;28;20387;-61
2023/10/05 04:23:49;;;;;;;13.43;3.23;;;;;;;;;;5074198;28;20044;-61
2023/10/05 04:26:16;;;;;;;14.57;3.03;;;;;;;;;;5074436;28;20048;-61
2023/10/05 04:28:51;;;;;;;15.37;3.60;;;;;;;;;;5073888;28;20105;-61
2023/10/05 04:31:21;;;;;;;12.83;3.13;;;;;;;;;;5074278;28;20419;-61
2023/10/05 04:33:47;;;;;;;15.40;3.27;;;;;;;;;;5073850;28;20620;-61
2023/10/05 04:36:16;;;;;;;11.67;3.57;;;;;;;;;;5074348;28;20127;-62
2023/10/05 04:38:43;;;;;;;16.23;3.50;;;;;;;;;;5073965;28;20052;-61
2023/10/05 04:41:12;;;;;;;17.43;4.30;;;;;;;;;;5073354;28;20052;-61
2023/10/05 04:43:38;;;;;;;15.63;3.40;;;;;;;;;;5074098;28;20055;-61
2023/10/05 04:46:09;;;;;;;15.43;3.40;;;;;;;;;;5074092;28;20041;-61
2023/10/05 04:48:35;;;;;;;17.73;4.20;;;;;;;;;;5073610;28;20326;-61
2023/10/05 04:51:05;;;;;;;15.47;3.70;;;;;;;;;;5074032;28;20044;-61
2023/10/05 04:53:31;;;;;;;18.33;3.83;;;;;;;;;;5073900;28;20426;-61
2023/10/05 04:56:00;;;;;;;15.97;5.13;;;;;;;;;;5074067;28;20052;-61
2023/10/05 04:58:53;;;;;;;14.17;3.97;;;;;;;;;;5073771;28;20080;-61
2023/10/05 05:01:28;;;;;;;12.00;4.03;;;;;;;;;;5074025;28;20040;-61
2023/10/05 05:04:27;;;;;;;19.03;4.53;;;;;;;;;;5072821;28;20495;-61
2023/10/05 05:06:53;;;;;;;13.77;3.57;;;;;;;;;;5070657;28;20414;-61
2023/10/05 05:09:21;;;;;;;11.83;3.70;;;;;;;;;;5070563;28;20056;-61
2023/10/05 05:11:49;;;;;;;11.30;3.50;;;;;;;;;;5070807;28;20051;-61
2023/10/05 05:14:15;;;;;;;15.90;3.60;;;;;;;;;;5070543;28;20709;-61
2023/10/05 05:16:43;;;;;;;12.87;3.30;;;;;;;;;;5070142;28;20040;-61
2023/10/05 05:19:10;;;;;;;14.90;3.63;;;;;;;;;;5070236;28;20056;-61
2023/10/05 05:21:36;;;;;;;14.23;3.93;;;;;;;;;;5070533;28;20426;-61
2023/10/05 05:24:05;;;;;;;14.20;3.67;;;;;;;;;;5070487;28;20054;-61
2023/10/05 05:26:31;;;;;;;14.33;4.40;;;;;;;;;;5070280;28;20052;-61
2023/10/05 05:28:58;;;;;;;11.03;3.30;;;;;;;;;;5069666;28;20055;-61
2023/10/05 05:31:24;;;;;;;18.50;4.63;;;;;;;;;;5070318;28;20060;-61
2023/10/05 05:33:50;;;;;;;16.10;4.30;;;;;;;;;;5070261;28;20102;-62
2023/10/05 05:36:17;;;;;;;15.00;4.70;;;;;;;;;;5070151;28;20475;-61
2023/10/05 05:38:50;;;;;;;17.17;4.13;;;;;;;;;;5069895;28;20054;-61
2023/10/05 05:41:18;;;;;;;15.38;3.40;;;;;;;;;;5069557;28;20452;-63
2023/10/05 05:43:45;;;;;;;17.07;4.83;;;;;;;;;;5069943;28;20094;-61
2023/10/05 05:46:14;;;;;;;10.77;3.50;;;;;;;;;;5070234;28;20533;-61
2023/10/05 05:48:44;;;;;;;13.17;3.40;;;;;;;;;;5069993;28;20040;-61
2023/10/05 05:51:17;;;;;;;15.20;3.47;;;;;;;;;;5069737;28;20056;-61
2023/10/05 05:53:44;;;;;;;22.77;4.45;;;;;;;;;;5068297;28;20182;-61
2023/10/05 05:56:16;;;;;;;13.47;3.70;;;;;;;;;;5069643;28;20592;-61
2023/10/05 05:58:44;;;;;;;18.08;3.53;;;;;;;;;;5069522;28;20051;-61
2023/10/05 06:01:14;;;;;;;12.70;3.70;;;;;;;;;;5068888;28;20494;-61
2023/10/05 06:03:41;;;;;;;9.27;3.53;;;;;;;;;;5069343;28;20048;-61
2023/10/05 06:06:07;;;;;;;9.40;2.87;;;;;;;;;;5069814;28;20059;-61
2023/10/05 06:08:33;;;;;;;14.77;3.33;;;;;;;;;;5069575;28;20135;-61
2023/10/05 06:10:59;;;;;;;11.37;3.30;;;;;;;;;;5068871;28;20051;-61
2023/10/05 06:13:25;;;;;;;12.43;2.87;;;;;;;;;;5069044;28;20094;-61
2023/10/05 06:15:51;;;;;;;15.37;3.30;;;;;;;;;;5068961;28;20518;-61
2023/10/05 06:18:17;;;;;;;11.87;3.27;;;;;;;;;;5068838;28;20044;-61
2023/10/05 06:20:43;;;;;;;20.70;3.90;;;;;;;;;;5069009;28;20063;-61
2023/10/05 06:23:11;;;;;;;17.40;3.97;;;;;;;;;;5068859;28;20040;-61
2023/10/05 06:25:39;;;;;;;18.40;5.27;;;;;;;;;;5068744;28;20048;-61
2023/10/05 06:28:05;;;;;;;11.87;3.07;;;;;;;;;;5068987;28;20050;-61
2023/10/05 06:30:32;;;;;;;18.93;4.87;;;;;;;;;;5068838;28;20113;-61
2023/10/05 06:32:58;;;;;;;10.53;3.93;;;;;;;;;;5068179;28;20525;-61
2023/10/05 06:35:24;;;;;;;11.63;2.67;;;;;;;;;;5068951;28;20052;-61
2023/10/05 06:37:51;;;;;;;13.50;3.40;;;;;;;;;;5068586;28;20457;-61
2023/10/05 06:40:21;;;;;;;13.17;2.83;;;;;;;;;;5068308;28;20518;-62
2023/10/05 06:42:51;;;;;;;14.77;3.57;;;;;;;;;;5068293;28;20045;-61
2023/10/05 06:45:23;;;;;;;11.90;2.60;;;;;;;;;;5068584;28;20041;-61
2023/10/05 06:47:49;;;;;;;14.70;3.87;;;;;;;;;;5067392;28;20119;-61
2023/10/05 06:50:15;;;;;;;19.90;3.37;;;;;;;;;;5068421;28;20052;-61
2023/10/05 06:52:46;;;;;;;9.53;2.97;;;;;;;;;;5068363;28;20054;-61
2023/10/05 06:55:13;;;;;;;15.57;3.87;;;;;;;;;;5068361;28;20124;-61
2023/10/05 06:57:40;;;;;;;10.43;3.40;;;;;;;;;;5067864;28;20051;-61
2023/10/05 07:00:16;;;;;;;10.50;3.33;;;;;;;;;;5067174;28;20044;-61
2023/10/05 07:02:42;;;;;;;14.93;3.20;;;;;;;;;;5068603;28;20052;-61
2023/10/05 07:05:09;;;;;;;9.93;3.00;;;;;;;;;;5068613;28;20048;-62
2023/10/05 07:07:35;;;;;;;17.70;3.47;;;;;;;;;;5068474;28;20075;-61
2023/10/05 07:10:03;;;;;;;15.50;3.33;;;;;;;;;;5067771;28;20044;-61
2023/10/05 07:12:30;;;;;;;17.40;3.67;;;;;;;;;;5068324;28;20252;-62
2023/10/05 07:14:56;;;;;;;14.33;3.10;;;;;;;;;;5068170;28;20459;-62
2023/10/05 07:17:22;;;;;;;15.90;3.37;;;;;;;;;;5066673;28;20040;-61
2023/10/05 07:19:49;;;;;;;11.97;3.23;;;;;;;;;;5067869;28;20139;-61
2023/10/05 07:22:17;;;;;;;15.33;3.10;;;;;;;;;;5068071;28;20102;-61
2023/10/05 07:24:43;;;;;;;8.73;3.07;;;;;;;;;;5068085;28;20048;-61
2023/10/05 07:27:09;;;;;;;15.20;3.90;;;;;;;;;;5067671;28;20044;-61
2023/10/05 07:29:36;;;;;;;11.07;2.83;;;;;;;;;;5067359;28;20106;-61
2023/10/05 07:32:02;;;;;;;12.27;3.07;;;;;;;;;;5067767;28;20055;-61
2023/10/05 07:34:29;;;;;;;14.90;3.10;;;;;;;;;;5067961;28;20526;-61
2023/10/05 07:36:55;;;;;;;12.10;2.83;;;;;;;;;;5067570;28;20057;-62
2023/10/05 07:39:23;;;;;;;11.30;3.67;;;;;;;;;;5067742;28;20049;-61
2023/10/05 07:41:49;;;;;;;12.70;2.83;;;;;;;;;;5068188;28;20080;-61
2023/10/05 07:44:16;;;;;;;18.40;3.30;;;;;;;;;;5067399;28;20048;-61
2023/10/05 07:46:43;;;;;;;12.70;3.50;;;;;;;;;;5067587;28;20083;-71
2023/10/05 07:49:09;;;;;;;13.60;2.87;;;;;;;;;;5067703;28;20132;-61
2023/10/05 07:51:35;;;;;;;13.10;3.93;;;;;;;;;;5067092;28;20086;-61
2023/10/05 07:54:01;;;;;;;10.13;3.13;;;;;;;;;;5067392;28;20041;-61
2023/10/05 07:56:28;;;;;;;15.93;3.20;;;;;;;;;;5067584;28;20048;-61
2023/10/05 07:58:54;;;;;;;15.30;3.53;;;;;;;;;;5067853;28;20048;-61
2023/10/05 08:01:21;;;;;;;14.70;3.20;;;;;;;;;;5067297;28;20041;-61
2023/10/05 08:03:47;;;;;;;14.70;3.67;;;;;;;;;;5067342;28;20049;-61
2023/10/05 08:06:15;;;;;;;14.23;3.77;;;;;;;;;;5067620;28;20503;-61
2023/10/05 08:08:43;;;;;;;11.33;3.07;;;;;;;;;;5067589;28;20553;-61
2023/10/05 08:11:12;;;;;;;15.20;4.00;;;;;;;;;;5067328;28;20052;-59
2023/10/05 08:13:39;;;;;;;16.67;2.97;;;;;;;;;;5067727;28;20060;-62
2023/10/05 08:16:07;;;;;;;12.23;3.47;;;;;;;;;;5067096;28;20048;-59
2023/10/05 08:18:33;;;;;;;9.67;2.97;;;;;;;;;;5067036;28;20053;-59
2023/10/05 08:20:59;;;;;;;13.73;3.10;;;;;;;;;;5067469;28;20495;-59
2023/10/05 08:23:25;;;;;;;10.73;3.00;;;;;;;;;;5066978;28;20093;-59
2023/10/05 08:25:51;;;;;;;21.07;3.57;;;;;;;;;;5066823;28;20127;-59
2023/10/05 08:28:20;;;;;;;13.57;4.10;;;;;;;;;;5067499;28;20044;-59
2023/10/05 08:31:04;;;;;;;15.57;3.47;;;;;;;;;;5067233;28;20087;-59
2023/10/05 08:33:33;;;;;;;11.93;3.70;;;;;;;;;;5066979;28;20055;-59
2023/10/05 08:36:00;;;;;;;16.10;3.20;;;;;;;;;;5067095;28;20080;-60
2023/10/05 08:38:27;;;;;;;12.43;2.97;;;;;;;;;;5066737;28;20060;-59
2023/10/05 08:40:53;;;;;;;10.37;3.20;;;;;;;;;;5069560;28;20048;-60
2023/10/05 08:43:20;;;;;;;16.53;3.23;;;;;;;;;;5071046;28;20049;-60
2023/10/05 08:45:52;;;;;;;11.03;2.70;;;;;;;;;;5070774;28;20044;-60
2023/10/05 08:48:28;;;;;;;13.30;3.33;;;;;;;;;;5070719;28;20558;-60
2023/10/05 08:50:57;;;;;;;11.70;2.90;;;;;;;;;;5070111;28;20135;-60
2023/10/05 08:53:24;;;;;;;15.03;4.27;;;;;;;;;;5070692;28;20049;-61
2023/10/05 08:55:54;;;;;;;17.43;4.07;;;;;;;;;;5070608;28;20075;-60
2023/10/05 08:58:21;;;;;;;16.03;3.60;;;;;;;;;;5071001;28;20574;-60
2023/10/05 09:00:48;;;;;;;15.23;3.10;;;;;;;;;;5070649;28;20044;-60
2023/10/05 09:03:29;;;;;;;14.30;3.50;;;;;;;;;;5070202;28;20443;-60
2023/10/05 09:06:13;;;;;;;17.10;3.97;;;;;;;;;;5070552;28;20037;-60
2023/10/05 09:08:51;;;;;;;17.48;3.40;;;;;;;;;;5070340;28;20044;-61
2023/10/05 09:11:20;;;;;;;12.10;3.00;;;;;;;;;;5069697;28;20522;-61
2023/10/05 09:13:46;;;;;;;11.23;3.37;;;;;;;;;;5070212;28;20511;-60
2023/10/05 09:16:15;;;;;;;15.43;3.23;;;;;;;;;;5070360;28;20044;-60
2023/10/05 09:18:47;;;;;;;15.03;4.30;;;;;;;;;;5070333;28;20044;-61
2023/10/05 09:21:18;;;;;;;9.93;2.83;;;;;;;;;;5070253;28;20102;-61
2023/10/05 09:23:44;;;;;;;13.67;3.77;;;;;;;;;;5070392;28;20040;-60
2023/10/05 09:26:33;;;;;;;10.43;3.83;;;;;;;;;;5069885;28;20056;-61
2023/10/05 09:29:20;;;;;;;15.07;3.33;;;;;;;;;;5070013;28;20498;-61
2023/10/05 09:31:50;;;;;;;15.50;4.00;;;;;;;;;;5070172;28;20067;-61
2023/10/05 09:34:36;;;;;;;12.73;2.70;;;;;;;;;;5070144;28;20084;-61
2023/10/05 09:37:13;;;;;;;14.90;3.53;;;;;;;;;;5069293;28;20144;-60
2023/10/05 09:39:44;;;;;;;13.53;3.30;;;;;;;;;;5069983;28;20064;-59
2023/10/05 09:42:22;;;;;;;8.07;3.07;;;;;;;;;;5069964;28;20067;-60
2023/10/05 09:44:52;;;;;;;11.70;3.40;;;;;;;;;;5069502;28;20131;-61
2023/10/05 09:47:20;;;;;;;12.80;3.20;;;;;;;;;;5070208;28;20048;-60
2023/10/05 09:49:47;;;;;;;14.17;3.40;;;;;;;;;;5069670;28;20048;-59
2023/10/05 09:52:13;;;;;;;11.53;3.27;;;;;;;;;;5069200;28;20040;-59
2023/10/05 09:54:40;;;;;;;16.77;3.57;;;;;;;;;;5069035;28;20045;-60
2023/10/05 09:57:10;;;;;;;12.47;3.23;;;;;;;;;;5069852;28;20051;-60
2023/10/05 09:59:53;;;;;;;15.60;3.40;;;;;;;;;;5069523;28;20098;-61
2023/10/05 10:02:23;;;;;;;13.20;3.47;;;;;;;;;;5069706;28;20143;-60
2023/10/05 10:04:50;;;;;;;13.77;3.07;;;;;;;;;;5068886;28;20044;-60
2023/10/05 10:07:22;;;;;;;13.83;3.80;;;;;;;;;;5069573;28;20576;-61
2023/10/05 10:09:53;;;;;;;14.25;3.97;;;;;;;;;;5069401;28;20048;-62
2023/10/05 10:12:28;;;;;;;18.50;4.27;;;;;;;;;;5069593;28;20056;-62
2023/10/05 10:14:58;;;;;;;12.43;3.23;;;;;;;;;;5069611;28;20048;-61
2023/10/05 10:17:28;;;;;;;8.73;3.27;;;;;;;;;;5069531;28;20499;-61
2023/10/05 10:20:13;;;;;;;12.23;3.73;;;;;;;;;;5068915;28;20816;-62
2023/10/05 10:23:05;;;;;;;13.53;3.50;;;;;;;;;;5068828;28;20088;-62
2023/10/05 10:25:40;;;;;;;11.43;3.07;;;;;;;;;;5068170;28;20051;-61
2023/10/05 10:28:20;;;;;;;11.23;3.90;;;;;;;;;;5069342;28;20448;-62
2023/10/05 10:30:47;;;;;;;14.03;3.17;;;;;;;;;;5069097;28;20040;-61
2023/10/05 10:33:34;;;;;;;11.63;3.43;;;;;;;;;;5068658;28;20040;-61
2023/10/05 10:36:03;;;;;;;10.97;3.47;;;;;;;;;;5068565;28;20051;-62
2023/10/05 10:38:29;;;;;;;8.53;2.80;;;;;;;;;;5068719;28;20098;-61
2023/10/05 10:41:09;;;;;;;13.03;3.40;;;;;;;;;;5068888;28;20048;-59
2023/10/05 10:43:36;;;;;;;14.90;3.83;;;;;;;;;;5068229;28;20131;-60
2023/10/05 10:46:28;;;;;;;12.97;3.90;;;;;;;;;;5068896;28;20040;-60
2023/10/05 10:48:53;;;;;;;15.37;3.20;;;;;;;;;;5068052;28;20555;-59
2023/10/05 10:51:20;;;;;;;10.77;2.70;;;;;;;;;;5068530;28;20049;-59
2023/10/05 10:53:50;;;;;;;15.93;3.73;;;;;;;;;;5068741;28;20068;-60
2023/10/05 10:56:22;;;;;;;9.93;3.23;;;;;;;;;;5068224;28;20074;-60
2023/10/05 10:58:56;;;;;;;13.75;3.55;;;;;;;;;;5068725;28;20091;-60
2023/10/05 11:01:29;;;;;;;9.70;3.13;;;;;;;;;;5068355;28;20053;-60
2023/10/05 11:04:01;;;;;;;15.40;2.88;;;;;;;;;;5067192;28;20147;-60
2023/10/05 11:06:29;;;;;;;13.67;3.87;;;;;;;;;;5068398;28;20059;-60
2023/10/05 11:09:09;;;;;;;10.80;3.30;;;;;;;;;;5068222;28;20048;-60
2023/10/05 11:11:37;;;;;;;19.47;4.03;;;;;;;;;;5068018;28;20052;-61
2023/10/05 11:14:06;;;;;;;18.37;3.93;;;;;;;;;;5067794;28;20044;-60
2023/10/05 11:16:43;;;;;;;11.20;3.10;;;;;;;;;;5068250;28;20541;-60
2023/10/05 11:19:13;;;;;;;14.03;4.30;;;;;;;;;;5068121;28;20120;-66
2023/10/05 11:21:45;;;;;;;14.03;3.07;;;;;;;;;;5067623;28;20052;-61
2023/10/05 11:24:15;;;;;;;16.37;3.50;;;;;;;;;;5068308;28;20056;-61
2023/10/05 11:29:29;;;;;;;15.53;4.20;;;;;;;;;;5067949;28;20052;-60
2023/10/05 11:32:01;;;;;;;13.90;3.90;;;;;;;;;;5067456;28;20118;-60
2023/10/05 11:34:38;;;;;;;14.53;3.10;;;;;;;;;;5066488;28;20086;-60
2023/10/05 11:37:15;;;;;;;12.20;2.80;;;;;;;;;;5068026;28;20052;-60
2023/10/05 11:39:41;;;;;;;13.37;2.97;;;;;;;;;;5067146;28;20058;-60
2023/10/05 11:42:10;;;;;;;11.10;3.43;;;;;;;;;;5067648;28;20494;-60
2023/10/05 11:44:37;;;;;;;13.03;3.63;;;;;;;;;;5067569;28;20055;-61
2023/10/05 11:47:07;;;;;;;10.67;3.30;;;;;;;;;;5067453;28;20044;-60
2023/10/05 11:49:33;;;;;;;9.80;2.90;;;;;;;;;;5067717;28;20051;-60
2023/10/05 11:52:00;;;;;;;13.47;3.27;;;;;;;;;;5067692;28;20036;-60
2023/10/05 11:54:29;;;;;;;12.63;3.00;;;;;;;;;;5067721;28;20041;-60
2023/10/05 11:56:56;;;;;;;12.43;2.97;;;;;;;;;;5067118;28;20057;-61
2023/10/05 11:59:27;;;;;;;12.03;3.57;;;;;;;;;;5067747;28;20117;-61
2023/10/05 12:01:53;;;;;;;14.77;3.97;;;;;;;;;;5067845;28;20070;-61
2023/10/05 12:04:23;;;;;;;10.73;3.47;;;;;;;;;;5067693;28;20040;-61
2023/10/05 12:06:58;;;;;;;13.87;3.70;;;;;;;;;;5067620;28;20094;-60
2023/10/05 12:09:30;;;;;;;14.10;3.40;;;;;;;;;;5067717;28;20055;-60
2023/10/05 12:11:58;;;;;;;17.45;4.95;;;;;;;;;;5066870;28;20041;-60
2023/10/05 12:14:24;;;;;;;12.97;3.67;;;;;;;;;;5069082;28;20136;-60
2023/10/05 12:16:52;;;;;;;25.30;4.07;;;;;;;;;;5071578;28;20060;-60
2023/10/05 12:19:27;;;;;;;8.90;3.23;;;;;;;;;;5071117;28;20177;-61
2023/10/05 12:21:55;;;;;;;15.63;4.67;;;;;;;;;;5071325;28;20067;-61
2023/10/05 12:24:21;;;;;;;9.80;3.77;;;;;;;;;;5071259;28;20049;-61
2023/10/05 12:26:47;;;;;;;12.37;3.20;;;;;;;;;;5071190;28;20082;-60
2023/10/05 12:29:14;;;;;;;12.73;3.37;;;;;;;;;;5070931;28;20550;-60
2023/10/05 12:31:41;;;;;;;9.57;3.17;;;;;;;;;;5070894;28;20553;-61
2023/10/05 12:34:14;;;;;;;14.10;3.00;;;;;;;;;;5071317;28;20130;-61
2023/10/05 12:36:54;;;;;;;9.75;2.78;;;;;;;;;;5070817;28;20517;-60
2023/10/05 12:39:20;;;;;;;11.45;2.92;;;;;;;;;;5071017;28;20059;-60
2023/10/05 12:41:47;;;;;;;9.15;2.95;;;;;;;;;;5070648;28;20040;-60
2023/10/05 12:44:14;;;;;;;15.63;3.30;;;;;;;;;;5070794;28;20052;-61
2023/10/05 12:46:40;;;;;;;9.57;2.90;;;;;;;;;;5070783;28;20056;-60
2023/10/05 12:49:10;;;;;;;13.07;3.10;;;;;;;;;;5071156;28;20059;-60
2023/10/05 12:51:36;;;;;;;12.40;3.17;;;;;;;;;;5070675;28;20425;-61
2023/10/05 12:54:08;;;;;;;13.13;3.30;;;;;;;;;;5070213;28;20410;-60
2023/10/05 12:56:35;;;;;;;9.25;3.10;;;;;;;;;;5070655;28;20048;-60
2023/10/05 12:59:03;;;;;;;13.80;3.63;;;;;;;;;;5070482;28;20048;-60
2023/10/05 13:01:29;;;;;;;11.53;2.90;;;;;;;;;;5070574;28;20084;-61
2023/10/05 13:03:56;;;;;;;13.20;3.30;;;;;;;;;;5070218;28;20048;-60
2023/10/05 13:06:24;;;;;;;11.97;2.43;;;;;;;;;;5070643;28;20101;-60
2023/10/05 13:08:50;;;;;;;10.53;2.60;;;;;;;;;;5070303;28;20455;-60
2023/10/05 13:11:18;;;;;;;13.03;2.60;;;;;;;;;;5070271;28;20048;-60
2023/10/05 13:13:44;;;;;;;13.27;2.87;;;;;;;;;;5069026;28;20399;-60
2023/10/05 13:16:21;;;;;;;14.97;3.57;;;;;;;;;;5070314;28;20508;-60
2023/10/05 13:18:49;;;;;;;13.30;3.70;;;;;;;;;;5069844;28;20132;-60
2023/10/05 13:21:16;;;;;;;8.83;2.43;;;;;;;;;;5070194;28;20060;-60
2023/10/05 13:23:42;;;;;;;8.47;2.80;;;;;;;;;;5070157;28;20055;-60
2023/10/05 13:26:08;;;;;;;11.57;2.90;;;;;;;;;;5069463;28;20044;-61
2023/10/05 13:28:34;;;;;;;8.80;2.60;;;;;;;;;;5070220;28;20528;-60
2023/10/05 13:31:06;;;;;;;8.20;2.30;;;;;;;;;;5069372;28;20044;-60
2023/10/05 13:33:35;;;;;;;10.03;2.77;;;;;;;;;;5070065;28;20123;-60
2023/10/05 13:36:07;;;;;;;9.57;2.43;;;;;;;;;;5069952;28;20427;-60
2023/10/05 13:38:34;;;;;;;8.38;2.83;;;;;;;;;;5069722;28;20053;-60
2023/10/05 13:43:33;;;;;;;17.10;2.50;;;;;;;;;;5069961;28;20056;-60
2023/10/05 13:46:07;;;;;;;10.57;2.60;;;;;;;;;;5069740;28;20052;-60
2023/10/05 13:48:35;;;;;;;8.17;2.33;;;;;;;;;;5069905;28;20046;-60
2023/10/05 13:51:03;;;;;;;8.20;2.20;;;;;;;;;;5069555;28;20045;-60
2023/10/05 13:53:29;;;;;;;7.97;2.17;;;;;;;;;;5069470;28;20041;-60
2023/10/05 13:55:55;;;;;;;9.53;2.60;;;;;;;;;;5069449;28;20037;-60
2023/10/05 13:58:21;;;;;;;6.80;2.20;;;;;;;;;;5069767;28;20037;-60
2023/10/05 14:00:50;;;;;;;10.47;2.43;;;;;;;;;;5069598;28;20079;-60
2023/10/05 14:03:16;;;;;;;12.30;2.93;;;;;;;;;;5069182;28;20060;-61
2023/10/05 14:05:50;;;;;;;10.67;2.60;;;;;;;;;;5069329;28;20503;-60
2023/10/05 14:08:17;;;;;;;9.07;2.10;;;;;;;;;;5069416;28;20080;-60
2023/10/05 14:10:43;;;;;;;8.83;2.00;;;;;;;;;;5069308;28;20098;-60
2023/10/05 14:13:09;;;;;;;7.77;2.13;;;;;;;;;;5069215;28;20048;-60
2023/10/05 14:15:35;;;;;;;6.30;2.10;;;;;;;;;;5068882;28;20079;-61
2023/10/05 14:18:06;;;;;;;8.97;2.10;;;;;;;;;;5068793;28;20171;-61
2023/10/05 14:20:33;;;;;;;7.30;2.00;;;;;;;;;;5069253;28;20997;-61
2023/10/05 14:23:01;;;;;;;6.00;2.20;;;;;;;;;;5069089;28;20059;-61
2023/10/05 14:25:27;;;;;;;9.73;2.23;;;;;;;;;;5069159;28;20048;-61
2023/10/05 14:27:53;;;;;;;12.73;2.30;;;;;;;;;;5068497;28;20036;-61
2023/10/05 14:30:20;;;;;;;8.97;2.30;;;;;;;;;;5068927;28;20060;-61
2023/10/05 14:32:49;;;;;;;11.40;3.47;;;;;;;;;;5068798;28;20399;-61
2023/10/05 14:35:18;;;;;;;6.40;1.90;;;;;;;;;;5068798;28;20101;-61
2023/10/05 14:37:44;;;;;;;6.87;1.90;;;;;;;;;;5068297;28;20057;-61
2023/10/05 14:40:18;;;;;;;9.03;1.97;;;;;;;;;;5068680;28;20044;-60
2023/10/05 14:42:44;;;;;;;6.53;2.13;;;;;;;;;;5068290;28;20040;-61
2023/10/05 14:45:14;;;;;;;9.23;2.17;;;;;;;;;;5069020;28;20131;-61
2023/10/05 14:47:41;;;;;;;10.80;2.30;;;;;;;;;;5068608;28;20079;-61
2023/10/05 14:50:08;;;;;;;7.87;1.80;;;;;;;;;;5068452;28;20105;-61
2023/10/05 14:52:37;;;;;;;11.37;2.90;;;;;;;;;;5068386;28;20048;-61
2023/10/05 14:55:03;;;;;;;10.53;2.13;;;;;;;;;;5067222;28;20056;-61